createdAt,value
2023-04-22T00:02:08.007Z,5.48
2023-04-22T00:04:55.342Z,5.45
2023-04-22T00:07:43.347Z,5.46
2023-04-22T00:10:30.572Z,5.32
2023-04-22T00:13:17.819Z,5.38
2023-04-22T00:16:05.288Z,5.36
2023-04-22T00:18:52.383Z,5.28
2023-04-22T00:21:39.456Z,5.40
2023-04-22T00:24:27.017Z,5.33
2023-04-22T00:27:14.130Z,5.31
2023-04-22T00:30:01.268Z,5.33
2023-04-22T00:32:49.288Z,5.33
2023-04-22T00:35:36.473Z,5.29
2023-04-22T00:38:23.552Z,5.23
2023-04-22T00:41:11.581Z,5.20
2023-04-22T00:44:00.482Z,5.24
2023-04-22T00:46:49.015Z,5.21
2023-04-22T00:49:36.680Z,5.16
2023-04-22T00:52:23.796Z,5.13
2023-04-22T00:55:11.930Z,5.00
2023-04-22T00:58:01.293Z,4.92
2023-04-22T01:00:48.447Z,4.85
2023-04-22T01:03:39.078Z,4.80
2023-04-22T01:06:29.826Z,4.99
2023-04-22T01:09:18.779Z,4.99
2023-04-22T01:12:06.545Z,4.81
2023-04-22T01:14:53.939Z,4.78
2023-04-22T01:17:41.551Z,4.65
2023-04-22T01:20:29.747Z,4.62
2023-04-22T01:23:21.467Z,4.59
2023-04-22T01:26:08.727Z,4.54
2023-04-22T01:28:56.186Z,4.44
2023-04-22T01:31:43.929Z,4.41
2023-04-22T01:34:32.409Z,4.47
2023-04-22T01:37:19.619Z,4.61
2023-04-22T01:40:09.323Z,4.54
2023-04-22T01:42:56.698Z,4.51
2023-04-22T01:45:43.834Z,4.42
2023-04-22T01:48:30.957Z,4.38
2023-04-22T01:51:20.945Z,4.31
2023-04-22T01:54:09.387Z,4.30
2023-04-22T01:56:58.706Z,4.28
2023-04-22T01:59:45.865Z,4.25
2023-04-22T02:02:33.038Z,4.28
2023-04-22T02:05:20.194Z,4.18
2023-04-22T02:08:07.375Z,4.20
2023-04-22T02:10:54.598Z,4.11
2023-04-22T02:13:41.812Z,4.15
2023-04-22T02:16:29.187Z,4.04
2023-04-22T02:19:16.355Z,3.97
2023-04-22T02:22:03.719Z,3.91
2023-04-22T02:24:50.811Z,3.84
2023-04-22T02:27:38.660Z,3.85
2023-04-22T02:30:25.836Z,3.77
2023-04-22T02:33:13.021Z,3.80
2023-04-22T02:36:00.058Z,3.71
2023-04-22T02:38:47.172Z,3.75
2023-04-22T02:41:34.190Z,3.73
2023-04-22T02:44:21.283Z,3.74
2023-04-22T02:47:08.423Z,3.63
2023-04-22T02:49:55.626Z,3.68
2023-04-22T02:52:42.630Z,3.66
2023-04-22T02:55:29.852Z,3.75
2023-04-22T02:58:17.000Z,3.60
2023-04-22T03:01:04.279Z,3.57
2023-04-22T03:03:51.559Z,3.49
2023-04-22T03:06:38.765Z,3.55
2023-04-22T03:09:25.889Z,3.67
2023-04-22T03:12:12.976Z,3.51
2023-04-22T03:15:00.065Z,3.37
2023-04-22T03:17:47.255Z,3.36
2023-04-22T03:20:35.523Z,3.31
2023-04-22T03:23:22.805Z,3.33
2023-04-22T03:26:09.856Z,3.29
2023-04-22T03:28:56.936Z,3.21
2023-04-22T03:31:44.062Z,3.17
2023-04-22T03:34:31.305Z,3.09
2023-04-22T03:37:18.357Z,3.19
2023-04-22T03:40:06.196Z,3.08
2023-04-22T03:42:53.258Z,3.01
2023-04-22T03:45:40.541Z,3.10
2023-04-22T03:48:30.084Z,3.15
2023-04-22T03:51:17.270Z,3.15
2023-04-22T03:54:04.414Z,3.17
2023-04-22T03:56:51.510Z,3.13
2023-04-22T03:59:38.753Z,3.11
2023-04-22T04:02:26.239Z,3.13
2023-04-22T04:05:14.088Z,3.07
2023-04-22T04:08:01.335Z,3.12
2023-04-22T04:10:48.408Z,3.14
2023-04-22T04:13:35.509Z,3.12
2023-04-22T04:16:22.831Z,3.12
2023-04-22T04:19:10.329Z,3.12
2023-04-22T04:21:57.475Z,3.18
2023-04-22T04:24:44.785Z,3.17
2023-04-22T04:27:31.898Z,3.11
2023-04-22T04:30:21.572Z,3.10
2023-04-22T04:33:08.835Z,3.12
2023-04-22T04:35:56.037Z,3.10
2023-04-22T04:38:43.240Z,3.14
2023-04-22T04:41:31.953Z,2.97
2023-04-22T04:44:21.041Z,3.07
2023-04-22T04:47:08.156Z,3.12
2023-04-22T04:49:55.235Z,3.12
2023-04-22T04:52:42.512Z,3.23
2023-04-22T04:55:29.600Z,3.28
2023-04-22T04:58:16.786Z,3.28
2023-04-22T05:01:03.867Z,3.29
2023-04-22T05:03:51.153Z,3.33
2023-04-22T05:06:38.316Z,3.32
2023-04-22T05:09:25.624Z,3.33
2023-04-22T05:12:12.686Z,3.41
2023-04-22T05:14:59.812Z,3.45
2023-04-22T05:17:46.984Z,3.44
2023-04-22T05:20:36.150Z,3.65
2023-04-22T05:23:23.436Z,3.82
2023-04-22T05:26:10.610Z,3.90
2023-04-22T05:28:57.721Z,3.80
2023-04-22T05:31:44.891Z,3.73
2023-04-22T05:34:31.937Z,3.77
2023-04-22T05:37:19.064Z,3.92
2023-04-22T05:40:06.970Z,4.01
2023-04-22T05:42:54.075Z,4.10
2023-04-22T05:45:41.271Z,4.15
2023-04-22T05:48:28.404Z,4.26
2023-04-22T05:51:15.481Z,4.29
2023-04-22T05:54:02.528Z,4.34
2023-04-22T05:56:49.638Z,4.68
2023-04-22T05:59:36.717Z,5.21
2023-04-22T06:02:23.978Z,5.65
2023-04-22T06:05:11.326Z,6.06
2023-04-22T06:07:58.454Z,6.56
2023-04-22T06:10:45.922Z,7.03
2023-04-22T06:13:32.984Z,7.41
2023-04-22T06:16:20.261Z,7.77
2023-04-22T06:19:10.397Z,7.97
2023-04-22T06:21:57.509Z,8.35
2023-04-22T06:24:46.289Z,8.61
2023-04-22T06:27:34.037Z,8.97
2023-04-22T06:30:21.289Z,9.17
2023-04-22T06:33:08.388Z,9.41
2023-04-22T06:35:55.655Z,9.69
2023-04-22T06:38:42.762Z,9.95
2023-04-22T06:41:30.714Z,10.16
2023-04-22T06:44:17.795Z,10.35
2023-04-22T06:47:05.296Z,10.57
2023-04-22T06:49:52.413Z,10.83
2023-04-22T06:52:39.478Z,11.12
2023-04-22T06:55:26.654Z,11.56
2023-04-22T06:58:13.680Z,11.81
2023-04-22T07:01:00.839Z,11.90
2023-04-22T07:03:48.101Z,11.88
2023-04-22T07:06:35.435Z,12.16
2023-04-22T07:09:22.537Z,12.39
2023-04-22T07:12:09.771Z,12.72
2023-04-22T07:14:57.187Z,13.16
2023-04-22T07:17:44.375Z,13.32
2023-04-22T07:20:31.582Z,13.45
2023-04-22T07:23:18.914Z,13.58
2023-04-22T07:26:06.362Z,14.13
2023-04-22T07:28:53.404Z,14.49
2023-04-22T07:31:40.558Z,14.81
2023-04-22T07:34:27.771Z,14.79
2023-04-22T07:37:14.800Z,14.86
2023-04-22T07:40:01.862Z,14.78
2023-04-22T07:42:48.910Z,14.87
2023-04-22T07:45:36.089Z,15.11
2023-04-22T07:48:23.370Z,15.39
2023-04-22T07:51:10.614Z,15.71
2023-04-22T07:53:57.690Z,15.79
2023-04-22T07:56:44.717Z,16.10
2023-04-22T07:59:31.825Z,16.05
2023-04-22T08:02:19.034Z,16.08
2023-04-22T08:05:06.842Z,16.16
2023-04-22T08:07:54.081Z,16.15
2023-04-22T08:10:44.107Z,16.38
2023-04-22T08:13:31.260Z,16.74
2023-04-22T08:16:19.136Z,17.02
2023-04-22T08:19:06.327Z,17.37
2023-04-22T08:21:53.659Z,17.46
2023-04-22T08:24:40.950Z,17.72
2023-04-22T08:27:28.058Z,17.81
2023-04-22T08:30:15.238Z,18.27
2023-04-22T08:33:03.012Z,18.33
2023-04-22T08:35:50.475Z,18.59
2023-04-22T08:38:37.693Z,19.04
2023-04-22T08:41:24.895Z,19.45
2023-04-22T08:44:13.160Z,19.53
2023-04-22T08:47:02.666Z,19.52
2023-04-22T08:49:51.704Z,19.46
2023-04-22T08:52:38.898Z,19.41
2023-04-22T08:55:26.836Z,19.96
2023-04-22T08:58:14.035Z,20.06
2023-04-22T09:01:02.324Z,20.07
2023-04-22T09:03:50.228Z,20.04
2023-04-22T09:06:38.906Z,19.92
2023-04-22T09:09:26.967Z,20.33
2023-04-22T09:12:14.081Z,20.11
2023-04-22T09:15:01.161Z,20.85
2023-04-22T09:17:52.055Z,20.66
2023-04-22T09:20:42.625Z,20.72
2023-04-22T09:23:29.715Z,20.98
2023-04-22T09:26:23.644Z,21.45
2023-04-22T09:29:15.916Z,21.16
2023-04-22T09:32:11.405Z,21.27
2023-04-22T09:34:58.540Z,21.12
2023-04-22T09:37:52.401Z,21.71
2023-04-22T09:40:43.679Z,21.68
2023-04-22T09:43:32.845Z,21.41
2023-04-22T09:46:19.965Z,21.81
2023-04-22T09:49:07.189Z,21.72
2023-04-22T09:51:58.318Z,21.70
2023-04-22T09:54:54.757Z,21.51
2023-04-22T09:57:43.452Z,21.51
2023-04-22T10:00:31.462Z,21.21
2023-04-22T10:03:19.212Z,21.60
2023-04-22T10:06:07.283Z,21.70
2023-04-22T10:08:55.026Z,21.93
2023-04-22T10:11:42.139Z,22.08
2023-04-22T10:14:29.510Z,21.72
2023-04-22T10:17:19.312Z,21.76
2023-04-22T10:20:16.469Z,21.92
2023-04-22T10:23:13.530Z,22.22
2023-04-22T10:26:00.780Z,22.25
2023-04-22T10:28:48.049Z,22.69
2023-04-22T10:31:38.843Z,22.77
2023-04-22T10:34:26.105Z,22.96
2023-04-22T10:37:14.894Z,22.80
2023-04-22T10:40:16.736Z,22.84
2023-04-22T10:43:04.758Z,22.72
2023-04-22T10:45:51.966Z,22.87
2023-04-22T10:48:57.224Z,22.87
2023-04-22T10:51:52.311Z,23.20
2023-04-22T10:54:39.355Z,23.00
2023-04-22T10:57:41.822Z,23.02
2023-04-22T11:00:53.276Z,23.32
2023-04-22T11:03:41.294Z,23.19
2023-04-22T11:06:30.465Z,23.06
2023-04-22T11:09:17.651Z,23.30
2023-04-22T11:12:35.886Z,23.45
2023-04-22T11:15:23.184Z,23.73
2023-04-22T11:18:14.332Z,23.35
2023-04-22T11:21:09.480Z,23.58
2023-04-22T11:23:57.673Z,23.54
2023-04-22T11:26:44.741Z,23.50
2023-04-22T11:29:31.869Z,23.75
2023-04-22T11:32:21.569Z,23.63
2023-04-22T11:35:13.988Z,23.15
2023-04-22T11:38:03.434Z,23.28
2023-04-22T11:40:50.439Z,23.38
2023-04-22T11:43:47.058Z,23.12
2023-04-22T11:46:39.656Z,23.65
2023-04-22T11:49:28.003Z,23.77
2023-04-22T11:52:15.046Z,23.82
2023-04-22T11:55:02.093Z,24.27
2023-04-22T11:57:57.128Z,24.39
2023-04-22T12:00:47.233Z,24.62
2023-04-22T12:03:34.902Z,24.96
2023-04-22T12:06:22.283Z,25.14
2023-04-22T12:09:09.855Z,25.48
2023-04-22T12:11:57.793Z,24.85
2023-04-22T12:14:46.396Z,24.64
2023-04-22T12:17:33.529Z,24.83
2023-04-22T12:20:21.849Z,25.39
2023-04-22T12:23:16.852Z,25.75
2023-04-22T12:26:04.014Z,25.83
2023-04-22T12:28:51.555Z,25.89
2023-04-22T12:31:38.835Z,25.11
2023-04-22T12:34:26.152Z,24.96
2023-04-22T12:37:13.435Z,25.47
2023-04-22T12:40:00.618Z,25.82
2023-04-22T12:42:47.765Z,26.06
2023-04-22T12:45:35.153Z,26.07
2023-04-22T12:48:22.374Z,26.00
2023-04-22T12:51:09.490Z,24.97
2023-04-22T12:53:56.651Z,25.45
2023-04-22T12:56:45.242Z,25.24
2023-04-22T12:59:32.333Z,25.54
2023-04-22T13:02:19.487Z,25.04
2023-04-22T13:05:06.719Z,25.05
2023-04-22T13:08:05.736Z,25.77
2023-04-22T13:10:54.032Z,25.56
2023-04-22T13:13:41.123Z,25.96
2023-04-22T13:16:28.270Z,27.09
2023-04-22T13:19:15.790Z,26.98
2023-04-22T13:22:03.049Z,27.17
2023-04-22T13:24:50.297Z,26.68
2023-04-22T13:27:37.576Z,27.15
2023-04-22T13:30:24.717Z,27.30
2023-04-22T13:33:11.821Z,26.20
2023-04-22T13:35:58.981Z,25.74
2023-04-22T13:38:46.078Z,25.94
2023-04-22T13:41:33.201Z,25.87
2023-04-22T13:44:20.602Z,25.86
2023-04-22T13:47:07.689Z,26.17
2023-04-22T13:49:54.737Z,25.29
2023-04-22T13:52:42.723Z,25.41
2023-04-22T13:55:29.809Z,25.44
2023-04-22T13:58:16.910Z,25.36
2023-04-22T14:01:04.526Z,25.07
2023-04-22T14:03:53.023Z,25.40
2023-04-22T14:06:40.256Z,25.27
2023-04-22T14:09:27.395Z,25.91
2023-04-22T14:12:14.579Z,26.59
2023-04-22T14:15:01.648Z,26.84
2023-04-22T14:17:49.839Z,27.11
2023-04-22T14:20:37.476Z,26.86
2023-04-22T14:23:24.650Z,26.93
2023-04-22T14:26:13.207Z,26.30
2023-04-22T14:29:00.358Z,25.55
2023-04-22T14:31:47.470Z,25.68
2023-04-22T14:34:34.576Z,25.52
2023-04-22T14:37:22.746Z,25.35
2023-04-22T14:40:12.508Z,25.43
2023-04-22T14:43:01.672Z,26.11
2023-04-22T14:45:48.898Z,25.59
2023-04-22T14:48:36.116Z,25.10
2023-04-22T14:51:23.307Z,25.18
2023-04-22T14:54:10.376Z,24.43
2023-04-22T14:56:58.754Z,24.15
2023-04-22T14:59:46.347Z,24.04
2023-04-22T15:02:33.631Z,23.95
2023-04-22T15:05:22.456Z,24.15
2023-04-22T15:08:09.640Z,24.08
2023-04-22T15:10:56.989Z,24.14
2023-04-22T15:13:44.156Z,24.20
2023-04-22T15:16:31.469Z,23.69
2023-04-22T15:19:18.706Z,23.74
2023-04-22T15:22:05.806Z,23.88
2023-04-22T15:24:52.934Z,24.13
2023-04-22T15:27:40.133Z,24.04
2023-04-22T15:30:27.222Z,23.82
2023-04-22T15:33:14.350Z,24.05
2023-04-22T15:36:04.216Z,23.28
2023-04-22T15:38:58.677Z,23.49
2023-04-22T15:41:46.121Z,23.46
2023-04-22T15:44:33.185Z,23.36
2023-04-22T15:47:20.295Z,22.97
2023-04-22T15:50:09.600Z,23.10
2023-04-22T15:52:56.789Z,23.18
2023-04-22T15:55:43.790Z,23.30
2023-04-22T15:58:34.465Z,23.39
2023-04-22T16:01:21.967Z,23.02
2023-04-22T16:04:09.312Z,23.42
2023-04-22T16:06:57.514Z,23.37
2023-04-22T16:09:44.609Z,23.12
2023-04-22T16:12:33.921Z,22.88
2023-04-22T16:15:23.717Z,23.12
2023-04-22T16:18:11.069Z,23.02
2023-04-22T16:20:59.996Z,22.86
2023-04-22T16:23:48.639Z,22.98
2023-04-22T16:26:35.789Z,22.68
2023-04-22T16:29:22.974Z,22.53
2023-04-22T16:32:10.388Z,22.32
2023-04-22T16:34:57.492Z,21.98
2023-04-22T16:37:44.842Z,21.95
2023-04-22T16:40:31.976Z,21.65
2023-04-22T16:43:19.045Z,21.57
2023-04-22T16:46:06.173Z,21.55
2023-04-22T16:48:53.781Z,21.54
2023-04-22T16:51:40.939Z,21.43
2023-04-22T16:54:28.121Z,21.11
2023-04-22T16:57:15.183Z,20.92
2023-04-22T17:00:02.266Z,20.84
2023-04-22T17:02:49.482Z,20.92
2023-04-22T17:05:36.621Z,21.01
2023-04-22T17:08:23.655Z,20.59
2023-04-22T17:11:12.048Z,20.67
2023-04-22T17:13:59.271Z,20.26
2023-04-22T17:16:46.555Z,19.85
2023-04-22T17:19:33.867Z,19.70
2023-04-22T17:22:21.006Z,19.36
2023-04-22T17:25:08.586Z,19.19
2023-04-22T17:27:55.847Z,18.61
2023-04-22T17:30:43.006Z,18.30
2023-04-22T17:33:30.397Z,17.91
2023-04-22T17:36:19.916Z,17.63
2023-04-22T17:39:07.235Z,17.54
2023-04-22T17:41:54.268Z,17.43
2023-04-22T17:44:41.583Z,17.33
2023-04-22T17:47:29.792Z,17.26
2023-04-22T17:50:17.201Z,17.17
2023-04-22T17:53:04.380Z,16.63
2023-04-22T17:55:51.531Z,16.51
2023-04-22T17:58:39.006Z,16.33
2023-04-22T18:01:29.367Z,16.56
2023-04-22T18:04:16.564Z,16.15
2023-04-22T18:07:04.048Z,15.96
2023-04-22T18:09:51.293Z,15.89
2023-04-22T18:12:39.377Z,15.69
2023-04-22T18:15:26.465Z,15.58
2023-04-22T18:18:16.192Z,15.33
2023-04-22T18:21:03.290Z,15.17
2023-04-22T18:23:51.173Z,15.13
2023-04-22T18:26:38.490Z,14.93
2023-04-22T18:29:26.232Z,14.76
2023-04-22T18:32:14.112Z,14.63
2023-04-22T18:35:01.591Z,14.63
2023-04-22T18:37:49.129Z,14.53
2023-04-22T18:40:36.437Z,14.26
2023-04-22T18:43:23.600Z,14.16
2023-04-22T18:46:11.040Z,13.87
2023-04-22T18:48:58.436Z,13.85
2023-04-22T18:51:47.854Z,13.81
2023-04-22T18:54:34.900Z,13.85
2023-04-22T18:57:21.965Z,13.50
2023-04-22T19:00:09.902Z,13.37
2023-04-22T19:02:57.189Z,13.38
2023-04-22T19:05:44.623Z,13.28
2023-04-22T19:08:32.077Z,13.19
2023-04-22T19:11:19.478Z,13.12
2023-04-22T19:14:06.650Z,13.02
2023-04-22T19:16:54.162Z,12.94
2023-04-22T19:19:41.640Z,12.95
2023-04-22T19:22:29.700Z,12.77
2023-04-22T19:25:18.894Z,12.70
2023-04-22T19:28:06.413Z,12.52
2023-04-22T19:30:53.930Z,12.38
2023-04-22T19:33:41.453Z,12.34
2023-04-22T19:36:28.976Z,12.28
2023-04-22T19:39:19.513Z,12.06
2023-04-22T19:42:06.804Z,12.06
2023-04-22T19:44:55.302Z,11.96
2023-04-22T19:47:42.982Z,12.03
2023-04-22T19:50:30.645Z,11.94
2023-04-22T19:53:19.462Z,11.84
2023-04-22T19:56:08.574Z,11.87
2023-04-22T19:58:56.312Z,11.72
2023-04-22T20:01:43.603Z,11.67
2023-04-22T20:04:32.810Z,11.64
2023-04-22T20:07:20.363Z,11.60
2023-04-22T20:10:09.959Z,11.81
2023-04-22T20:12:57.395Z,11.42
2023-04-22T20:15:45.234Z,11.47
2023-04-22T20:18:32.841Z,11.35
2023-04-22T20:21:20.417Z,11.28
2023-04-22T20:24:09.580Z,11.20
2023-04-22T20:26:57.302Z,11.21
2023-04-22T20:29:44.973Z,11.35
2023-04-22T20:32:32.283Z,10.97
2023-04-22T20:35:20.201Z,10.86
2023-04-22T20:38:08.999Z,10.83
2023-04-22T20:40:56.662Z,10.74
2023-04-22T20:43:44.137Z,10.78
2023-04-22T20:46:31.386Z,10.80
2023-04-22T20:49:18.801Z,10.66
2023-04-22T20:52:07.171Z,10.57
2023-04-22T20:54:57.139Z,10.53
2023-04-22T20:57:44.193Z,10.68
2023-04-22T21:00:31.634Z,10.60
2023-04-22T21:03:19.255Z,10.32
2023-04-22T21:06:07.011Z,10.32
2023-04-22T21:08:55.531Z,10.26
2023-04-22T21:11:42.860Z,10.23
2023-04-22T21:14:30.390Z,10.19
2023-04-22T21:17:31.890Z,10.10
2023-04-22T21:20:21.084Z,10.10
2023-04-22T21:23:08.819Z,10.08
2023-04-22T21:25:57.091Z,9.93
2023-04-22T21:28:45.011Z,9.87
2023-04-22T21:31:34.231Z,10.06
2023-04-22T21:34:21.298Z,10.12
2023-04-22T21:37:08.745Z,9.86
2023-04-22T21:39:55.841Z,9.71
2023-04-22T21:42:42.918Z,9.65
2023-04-22T21:45:30.885Z,9.67
2023-04-22T21:48:17.925Z,9.56
2023-04-22T21:51:05.220Z,9.50
2023-04-22T21:53:52.880Z,9.50
2023-04-22T21:56:39.995Z,9.64
2023-04-22T21:59:27.271Z,9.56
2023-04-22T22:02:14.439Z,9.43
2023-04-22T22:05:01.895Z,9.32
2023-04-22T22:07:49.413Z,9.33
2023-04-22T22:10:36.953Z,9.34
2023-04-22T22:13:24.120Z,9.23
2023-04-22T22:16:11.833Z,9.36
2023-04-22T22:18:59.179Z,9.12
2023-04-22T22:21:46.699Z,9.19
2023-04-22T22:24:34.064Z,9.21
2023-04-22T22:27:21.224Z,9.12
2023-04-22T22:30:09.381Z,9.06
2023-04-22T22:32:56.555Z,9.05
2023-04-22T22:35:43.664Z,9.18
2023-04-22T22:38:30.971Z,9.15
2023-04-22T22:41:18.065Z,8.99
2023-04-22T22:44:05.093Z,8.91
2023-04-22T22:46:52.169Z,8.82
2023-04-22T22:49:39.361Z,8.83
2023-04-22T22:52:26.466Z,8.79
2023-04-22T22:55:13.965Z,8.92
2023-04-22T22:58:01.029Z,8.77
2023-04-22T23:03:34.470Z,8.68
2023-04-22T23:06:21.930Z,8.73
2023-04-22T23:09:10.862Z,8.58
2023-04-22T23:11:58.003Z,8.43
2023-04-22T23:14:45.037Z,8.39
2023-04-22T23:17:32.104Z,8.35
2023-04-22T23:20:20.641Z,8.63
2023-04-22T23:23:08.896Z,8.41
2023-04-22T23:25:56.745Z,8.37
2023-04-22T23:28:44.065Z,8.31
2023-04-22T23:31:33.536Z,8.27
2023-04-22T23:34:23.998Z,8.25
2023-04-22T23:37:14.260Z,8.24
2023-04-22T23:40:01.548Z,8.11
2023-04-22T23:42:48.759Z,8.06
2023-04-22T23:45:35.896Z,8.20
2023-04-22T23:48:22.970Z,8.04
2023-04-22T23:51:10.243Z,8.01
2023-04-22T23:53:57.338Z,7.92
2023-04-22T23:56:44.742Z,7.85
2023-04-22T23:59:32.251Z,7.77
